Time;durP1;ratioP1;P1;durP2;ratioP2;P2;SDS_P1;SDS_P2;PMS_P1;PMS_P2;Temp;Humidity;BMP_temperature;BMP_pressure;BME280_temperature;BME280_humidity;BME280_pressure;Samples;Min_cycle;Max_cycle;Signal;HPM_P1;HPM_P2
2023/12/08 00:00:27;;;;;;;;;0.00;0.00;;;;;-146.25;100.00;57879.81;5107313;27;46309;-76
2023/12/08 00:02:52;;;;;;;;;0.00;0.00;;;;;-146.25;100.00;57879.81;5109234;27;45330;-76
2023/12/08 00:05:18;;;;;;;;;0.00;0.00;;;;;-146.25;100.00;57879.81;5108738;27;45398;-76
2023/12/08 00:07:44;;;;;;;;;0.00;0.00;;;;;-146.25;100.00;57879.81;5106877;27;46106;-77
2023/12/08 00:10:09;;;;;;;;;1.00;0.00;;;;;-146.25;100.00;57879.81;5109104;27;45448;-76
2023/12/08 00:12:35;;;;;;;;;0.33;0.33;;;;;-146.25;100.00;57879.81;5107863;27;45722;-76
2023/12/08 00:15:01;;;;;;;;;0.00;0.00;;;;;-146.25;100.00;57879.81;5089037;27;45526;-76
2023/12/08 00:17:27;;;;;;;;;0.00;0.00;;;;;-146.25;100.00;57879.81;5109320;27;46515;-76
2023/12/08 00:19:53;;;;;;;;;0.00;0.00;;;;;-146.25;100.00;57879.81;5107741;27;45504;-76
2023/12/08 00:22:19;;;;;;;;;0.00;0.00;;;;;-146.25;100.00;57879.81;5107688;27;45617;-75
2023/12/08 00:24:44;;;;;;;;;0.00;0.00;;;;;-146.25;100.00;57879.81;5109011;27;45492;-76
2023/12/08 00:27:10;;;;;;;;;0.00;0.00;;;;;-146.25;100.00;57879.81;5106893;27;46042;-75
2023/12/08 00:29:36;;;;;;;;;6.33;4.00;;;;;-146.25;100.00;57879.81;5107951;27;45667;-75
2023/12/08 00:32:01;;;;;;;;;5.67;2.00;;;;;-146.25;100.00;57879.81;5108556;27;45405;-75
2023/12/08 00:34:27;;;;;;;;;1.00;0.33;;;;;-146.25;100.00;57879.81;5107203;27;45484;-75
2023/12/08 00:36:52;;;;;;;;;0.00;0.00;;;;;-146.25;100.00;57879.81;5108096;27;45804;-75
2023/12/08 00:39:18;;;;;;;;;1.67;1.00;;;;;-146.25;100.00;57879.81;5107830;27;45571;-75
2023/12/08 00:41:43;;;;;;;;;1.00;0.00;;;;;-146.25;100.00;57879.81;5106636;27;46060;-75
2023/12/08 00:44:09;;;;;;;;;1.00;0.00;;;;;-146.25;100.00;57879.81;5106892;27;45464;-75
2023/12/08 00:46:35;;;;;;;;;1.33;0.00;;;;;-146.25;100.00;57879.81;5107229;27;45401;-75
2023/12/08 00:49:00;;;;;;;;;0.00;0.00;;;;;-146.25;100.00;57879.81;5107028;27;45377;-76
2023/12/08 00:51:26;;;;;;;;;0.00;0.00;;;;;-146.25;100.00;57879.81;5106743;27;45500;-75
2023/12/08 00:53:52;;;;;;;;;0.00;0.00;;;;;-146.25;100.00;57879.81;5107332;27;45804;-75
2023/12/08 00:56:18;;;;;;;;;1.00;0.00;;;;;-146.25;100.00;57879.81;5106681;27;46309;-75
2023/12/08 00:58:44;;;;;;;;;0.33;0.33;;;;;-146.25;100.00;57879.81;5107762;27;45484;-75
2023/12/08 01:01:10;;;;;;;;;0.67;0.00;;;;;-146.25;100.00;57879.81;5106085;27;45448;-75
2023/12/08 01:03:35;;;;;;;;;0.00;0.00;;;;;-146.25;100.00;57879.81;5107372;27;45371;-76
2023/12/08 01:06:01;;;;;;;;;0.33;0.33;;;;;-146.25;100.00;57879.81;5107685;27;45957;-75
2023/12/08 01:08:27;;;;;;;;;0.67;0.00;;;;;-146.25;100.00;57879.81;5107314;27;45327;-76
2023/12/08 01:10:52;;;;;;;;;1.00;0.00;;;;;-146.25;100.00;57879.81;5106340;27;45423;-75
2023/12/08 01:13:19;;;;;;;;;1.67;0.00;;;;;-146.25;100.00;57879.81;5107041;27;45342;-76
2023/12/08 01:15:45;;;;;;;;;0.00;0.00;;;;;-146.25;100.00;57879.81;5108312;27;45458;-75
2023/12/08 01:18:10;;;;;;;;;0.00;0.00;;;;;-146.25;100.00;57879.81;5109874;27;45491;-76
2023/12/08 01:20:36;;;;;;;;;0.67;0.00;;;;;-146.25;100.00;57879.81;5110990;27;45419;-76
2023/12/08 01:23:02;;;;;;;;;0.00;0.00;;;;;-146.25;100.00;57879.81;5111707;27;45502;-77
2023/12/08 01:25:27;;;;;;;;;0.00;0.00;;;;;-146.25;100.00;57879.81;5109624;27;45454;-77
2023/12/08 01:27:54;;;;;;;;;1.00;0.00;;;;;-146.25;100.00;57879.81;5111128;27;45365;-77
2023/12/08 01:30:20;;;;;;;;;0.00;0.00;;;;;-146.25;100.00;57879.81;5111362;27;45429;-77
2023/12/08 01:32:45;;;;;;;;;0.00;0.00;;;;;-146.25;100.00;57879.81;5109782;27;45456;-76
2023/12/08 01:35:11;;;;;;;;;0.33;0.00;;;;;-146.25;100.00;57879.81;5111217;27;45453;-76
2023/12/08 01:37:37;;;;;;;;;0.00;0.00;;;;;-146.25;100.00;57879.81;5110803;27;45444;-77
2023/12/08 01:40:03;;;;;;;;;0.00;0.00;;;;;-146.25;100.00;57879.81;5109750;27;45563;-77
2023/12/08 01:42:28;;;;;;;;;0.33;0.00;;;;;-146.25;100.00;57879.81;5111868;27;45512;-76
2023/12/08 01:44:54;;;;;;;;;0.00;0.00;;;;;-146.25;100.00;57879.81;5109593;27;46502;-76
2023/12/08 01:47:20;;;;;;;;;0.00;0.00;;;;;-146.25;100.00;57879.81;5109871;27;45568;-78
2023/12/08 01:49:46;;;;;;;;;0.00;0.00;;;;;-146.25;100.00;57879.81;5111399;27;45696;-76
2023/12/08 01:52:20;;;;;;;;;0.33;0.00;;;;;-146.25;100.00;57879.81;5109475;27;45652;-76
2023/12/08 01:54:45;;;;;;;;;0.00;0.00;;;;;-146.25;100.00;57879.81;5109325;27;45626;-76
2023/12/08 01:57:11;;;;;;;;;0.00;0.00;;;;;-146.25;100.00;57879.81;5111005;27;45591;-76
2023/12/08 01:59:36;;;;;;;;;0.00;0.00;;;;;-146.25;100.00;57879.81;5110392;27;45451;-77
2023/12/08 02:02:02;;;;;;;;;1.00;0.00;;;;;-146.25;100.00;57879.81;5109912;27;45245;-76
2023/12/08 02:04:28;;;;;;;;;0.00;0.00;;;;;-146.25;100.00;57879.81;5111342;27;45546;-75
2023/12/08 02:06:55;;;;;;;;;0.00;0.00;;;;;-146.25;100.00;57879.81;5109494;27;45419;-76
2023/12/08 02:09:21;;;;;;;;;1.00;0.00;;;;;-146.25;100.00;57879.81;5109694;27;45452;-77
2023/12/08 02:11:46;;;;;;;;;1.33;0.00;;;;;-146.25;100.00;57879.81;5111274;27;45466;-76
2023/12/08 02:14:13;;;;;;;;;0.00;0.00;;;;;-146.25;100.00;57879.81;5109213;27;45549;-78
2023/12/08 02:16:50;;;;;;;;;1.00;0.00;;;;;-146.25;100.00;57879.81;5109773;27;45441;-75
2023/12/08 02:19:17;;;;;;;;;0.00;0.00;;;;;-146.25;100.00;57879.81;5109892;27;45299;-77
2023/12/08 02:21:43;;;;;;;;;0.00;0.00;;;;;-146.25;100.00;57879.81;5109400;27;45479;-77
2023/12/08 02:24:09;;;;;;;;;0.00;0.00;;;;;-146.25;100.00;57879.81;5110664;27;46125;-76
2023/12/08 02:26:35;;;;;;;;;0.00;0.00;;;;;-146.25;100.00;57879.81;5109295;27;45350;-76
2023/12/08 02:29:00;;;;;;;;;0.00;0.00;;;;;-146.25;100.00;57879.81;5108788;27;45468;-77
2023/12/08 02:31:37;;;;;;;;;0.67;0.00;;;;;-146.25;100.00;57879.81;5110951;27;45440;-78
2023/12/08 02:34:05;;;;;;;;;0.00;0.00;;;;;-146.25;100.00;57879.81;5110343;27;46019;-76
2023/12/08 02:36:33;;;;;;;;;0.00;0.00;;;;;-146.25;100.00;57879.81;5108917;27;45227;-77
2023/12/08 02:39:01;;;;;;;;;0.33;0.00;;;;;-146.25;100.00;57879.81;5109685;27;45486;-77
2023/12/08 02:41:26;;;;;;;;;0.00;0.00;;;;;-146.25;100.00;57879.81;5110856;27;45579;-78
2023/12/08 02:43:52;;;;;;;;;0.33;0.00;;;;;-146.25;100.00;57879.81;5108600;27;45497;-77
2023/12/08 02:46:18;;;;;;;;;1.00;0.00;;;;;-146.25;100.00;57879.81;5109522;27;45503;-76
2023/12/08 02:48:43;;;;;;;;;0.00;0.00;;;;;-146.25;100.00;57879.81;5110344;27;45533;-77
2023/12/08 02:51:09;;;;;;;;;0.00;0.00;;;;;-146.25;100.00;57879.81;5108376;27;45485;-76
2023/12/08 02:53:34;;;;;;;;;0.00;0.00;;;;;-146.25;100.00;57879.81;5109750;27;45516;-77
2023/12/08 02:56:00;;;;;;;;;0.00;0.00;;;;;-146.25;100.00;57879.81;5110027;27;45508;-75
2023/12/08 02:58:26;;;;;;;;;0.33;0.00;;;;;-146.25;100.00;57879.81;5108436;27;45487;-77
2023/12/08 03:00:51;;;;;;;;;0.00;0.00;;;;;-146.25;100.00;57879.81;5110523;27;45511;-77
2023/12/08 03:03:17;;;;;;;;;0.00;0.00;;;;;-146.25;100.00;57879.81;5117741;27;46047;-76
2023/12/08 03:05:42;;;;;;;;;0.00;0.00;;;;;-146.25;100.00;57879.81;5119905;27;45664;-76
2023/12/08 03:08:08;;;;;;;;;0.67;0.00;;;;;-146.25;100.00;57879.81;5113556;27;45160;-76
2023/12/08 03:10:33;;;;;;;;;0.33;0.00;;;;;-146.25;100.00;57879.81;5108721;27;45451;-76
2023/12/08 03:12:59;;;;;;;;;0.00;0.00;;;;;-146.25;100.00;57879.81;5108284;27;46162;-76
2023/12/08 03:15:25;;;;;;;;;0.00;0.00;;;;;-146.25;100.00;57879.81;5109177;27;45666;-77
2023/12/08 03:17:51;;;;;;;;;0.00;0.00;;;;;-146.25;100.00;57879.81;5109703;27;45591;-76
2023/12/08 03:20:17;;;;;;;;;0.33;0.00;;;;;-146.25;100.00;57879.81;5108042;27;45507;-77
2023/12/08 03:22:43;;;;;;;;;0.00;0.00;;;;;-146.25;100.00;57879.81;5109155;27;45669;-77
2023/12/08 03:25:08;;;;;;;;;1.00;1.00;;;;;-146.25;100.00;57879.81;5109023;27;45597;-76
2023/12/08 03:27:34;;;;;;;;;0.00;0.00;;;;;-146.25;100.00;57879.81;5107961;27;45524;-76
2023/12/08 03:30:00;;;;;;;;;0.00;0.00;;;;;-146.25;100.00;57879.81;5108446;27;45381;-77
2023/12/08 03:32:25;;;;;;;;;0.00;0.00;;;;;-146.25;100.00;57879.81;5108584;27;46032;-76
2023/12/08 03:34:51;;;;;;;;;1.00;0.00;;;;;-146.25;100.00;57879.81;5109244;27;45249;-77
2023/12/08 03:37:16;;;;;;;;;0.00;0.00;;;;;-146.25;100.00;57879.81;5107606;27;45523;-77
2023/12/08 03:39:44;;;;;;;;;0.33;0.00;;;;;-146.25;100.00;57879.81;5109254;27;45441;-77
2023/12/08 03:42:10;;;;;;;;;0.00;0.00;;;;;-146.25;100.00;57879.81;5108914;27;46085;-75
2023/12/08 03:44:36;;;;;;;;;0.00;0.00;;;;;-146.25;100.00;57879.81;5107288;27;45304;-75
2023/12/08 03:47:01;;;;;;;;;1.00;0.00;;;;;-146.25;100.00;57879.81;5109406;27;45517;-76
2023/12/08 03:49:27;;;;;;;;;0.00;0.00;;;;;-146.25;100.00;57879.81;5111694;27;45401;-76
2023/12/08 03:51:52;;;;;;;;;0.00;0.00;;;;;-146.25;100.00;57879.81;5118108;27;45995;-77
2023/12/08 03:54:18;;;;;;;;;0.33;0.00;;;;;-146.25;100.00;57879.81;5119194;27;45318;-77
2023/12/08 03:56:43;;;;;;;;;1.00;0.00;;;;;-146.25;100.00;57879.81;5119529;27;45390;-77
2023/12/08 03:59:09;;;;;;;;;0.00;0.00;;;;;-146.25;100.00;57879.81;5119789;27;45420;-76
2023/12/08 04:01:35;;;;;;;;;0.00;0.00;;;;;-146.25;100.00;57879.81;5119679;27;45567;-76
2023/12/08 04:04:00;;;;;;;;;0.00;0.00;;;;;-146.25;100.00;57879.81;5119593;27;45460;-76
2023/12/08 04:06:26;;;;;;;;;0.00;0.00;;;;;-146.25;100.00;57879.81;5119522;27;45318;-76
2023/12/08 04:08:52;;;;;;;;;0.00;0.00;;;;;-146.25;100.00;57879.81;5119734;27;45361;-76
2023/12/08 04:11:17;;;;;;;;;0.00;0.00;;;;;-146.25;100.00;57879.81;5119200;27;45279;-77
2023/12/08 04:13:43;;;;;;;;;0.00;0.00;;;;;-146.25;100.00;57879.81;5119236;27;45450;-76
2023/12/08 04:16:09;;;;;;;;;0.00;0.00;;;;;-146.25;100.00;57879.81;5119325;27;45472;-76
2023/12/08 04:18:35;;;;;;;;;0.00;0.00;;;;;-146.25;100.00;57879.81;5119614;27;45373;-76
2023/12/08 04:21:01;;;;;;;;;0.00;0.00;;;;;-146.25;100.00;57879.81;5119038;27;46017;-76
2023/12/08 04:23:26;;;;;;;;;0.00;0.00;;;;;-146.25;100.00;57879.81;5118866;27;45485;-76
2023/12/08 04:25:52;;;;;;;;;0.00;0.00;;;;;-146.25;100.00;57879.81;5119134;27;45165;-76
2023/12/08 04:28:17;;;;;;;;;0.00;0.00;;;;;-146.25;100.00;57879.81;5119226;27;45512;-76
2023/12/08 04:30:43;;;;;;;;;0.00;0.00;;;;;-146.25;100.00;57879.81;5118975;27;45378;-76
2023/12/08 04:33:09;;;;;;;;;0.00;0.00;;;;;-146.25;100.00;57879.81;5100268;27;45548;-76
2023/12/08 04:35:35;;;;;;;;;0.00;0.00;;;;;-146.25;100.00;57879.81;5119248;27;45357;-76
2023/12/08 04:38:01;;;;;;;;;0.00;0.00;;;;;-146.25;100.00;57879.81;5118914;27;45533;-76
2023/12/08 04:40:26;;;;;;;;;0.00;0.00;;;;;-146.25;100.00;57879.81;5099985;27;46172;-76
2023/12/08 04:42:52;;;;;;;;;0.00;0.00;;;;;-146.25;100.00;57879.81;5099728;27;45441;-76
2023/12/08 04:45:17;;;;;;;;;0.00;0.00;;;;;-146.25;100.00;57879.81;5118811;27;45413;-76
2023/12/08 04:47:43;;;;;;;;;0.00;0.00;;;;;-146.25;100.00;57879.81;5118837;27;45416;-76
2023/12/08 04:50:09;;;;;;;;;0.00;0.00;;;;;-146.25;100.00;57879.81;5099300;27;45450;-76
2023/12/08 04:52:34;;;;;;;;;0.00;0.00;;;;;-146.25;100.00;57879.81;5118425;27;45467;-76
2023/12/08 04:55:04;;;;;;;;;0.00;0.00;;;;;-146.25;100.00;57879.81;5118722;27;45298;-77
2023/12/08 04:57:31;;;;;;;;;0.00;0.00;;;;;-146.25;100.00;57879.81;5118808;27;45475;-76
2023/12/08 04:59:57;;;;;;;;;0.00;0.00;;;;;-146.25;100.00;57879.81;5114621;27;45602;-76
2023/12/08 05:02:23;;;;;;;;;0.00;0.00;;;;;-146.25;100.00;57879.81;5106032;27;45535;-76
2023/12/08 05:04:56;;;;;;;;;0.33;0.00;;;;;-146.25;100.00;57879.81;5107521;27;45406;-78
2023/12/08 05:07:22;;;;;;;;;0.00;0.00;;;;;-146.25;100.00;57879.81;5108229;27;45661;-76
2023/12/08 05:09:47;;;;;;;;;0.00;0.00;;;;;-146.25;100.00;57879.81;5107232;27;45502;-78
2023/12/08 05:12:13;;;;;;;;;0.00;0.00;;;;;-146.25;100.00;57879.81;5107940;27;45431;-78
2023/12/08 05:14:39;;;;;;;;;0.00;0.00;;;;;-146.25;100.00;57879.81;5105980;27;45371;-76
2023/12/08 05:17:04;;;;;;;;;0.00;0.00;;;;;-146.25;100.00;57879.81;5108063;27;45291;-76
2023/12/08 05:19:30;;;;;;;;;2.00;2.00;;;;;-146.25;100.00;57879.81;5107413;27;45582;-76
2023/12/08 05:21:55;;;;;;;;;0.00;0.00;;;;;-146.25;100.00;57879.81;5105894;27;45544;-76
2023/12/08 05:24:21;;;;;;;;;0.00;0.00;;;;;-146.25;100.00;57879.81;5108051;27;45311;-76
2023/12/08 05:26:47;;;;;;;;;0.00;0.00;;;;;-146.25;100.00;57879.81;5107413;27;45434;-77
2023/12/08 05:29:13;;;;;;;;;2.00;0.75;;;;;-146.25;100.00;57879.81;5105997;27;45335;-76
2023/12/08 05:31:39;;;;;;;;;0.00;0.00;;;;;-146.25;100.00;57879.81;5107836;27;45507;-77
2023/12/08 05:34:04;;;;;;;;;0.00;0.00;;;;;-146.25;100.00;57879.81;5106957;27;46054;-76
2023/12/08 05:36:37;;;;;;;;;0.67;0.00;;;;;-146.25;100.00;57879.81;5088154;27;45591;-77
2023/12/08 05:39:10;;;;;;;;;1.00;1.00;;;;;-146.25;100.00;57879.81;5106313;27;46419;-77
2023/12/08 05:41:46;;;;;;;;;0.00;0.00;;;;;-146.25;100.00;57879.81;5105973;27;45247;-77
2023/12/08 05:44:18;;;;;;;;;3.00;1.00;;;;;-146.25;100.00;57879.81;5106249;27;45521;-77
2023/12/08 05:46:49;;;;;;;;;0.00;0.00;;;;;-146.25;100.00;57879.81;5106476;27;45484;-77
2023/12/08 05:49:19;;;;;;;;;0.00;0.00;;;;;-146.25;100.00;57879.81;5105718;27;45411;-76
2023/12/08 05:51:55;;;;;;;;;0.33;0.33;;;;;-146.25;100.00;57879.81;5106047;27;45227;-77
2023/12/08 05:54:22;;;;;;;;;0.00;0.00;;;;;-146.25;100.00;57879.81;5102347;27;45666;-77
2023/12/08 05:56:48;;;;;;;;;0.00;0.00;;;;;-146.25;100.00;57879.81;5097309;27;45387;-76
2023/12/08 05:59:14;;;;;;;;;0.00;0.00;;;;;-146.25;100.00;57879.81;5097211;27;45402;-77
2023/12/08 06:01:39;;;;;;;;;0.00;0.00;;;;;-146.25;100.00;57879.81;5079361;27;45485;-78
2023/12/08 06:04:05;;;;;;;;;1.00;0.00;;;;;-146.25;100.00;57879.81;5100789;27;45505;-78
2023/12/08 06:06:32;;;;;;;;;1.00;0.00;;;;;-146.25;100.00;57879.81;5100925;27;45793;-76
2023/12/08 06:08:57;;;;;;;;;0.00;0.00;;;;;-146.25;100.00;57879.81;5100366;27;46712;-76
2023/12/08 06:11:23;;;;;;;;;0.00;0.00;;;;;-146.25;100.00;57879.81;5100421;27;45347;-76
2023/12/08 06:13:48;;;;;;;;;0.67;0.00;;;;;-146.25;100.00;57879.81;5100692;27;45248;-77
2023/12/08 06:16:14;;;;;;;;;0.00;0.00;;;;;-146.25;100.00;57879.81;5100734;27;45414;-77
2023/12/08 06:18:40;;;;;;;;;0.00;0.00;;;;;-146.25;100.00;57879.81;5100506;27;45510;-76
2023/12/08 06:21:06;;;;;;;;;1.00;0.00;;;;;-146.25;100.00;57879.81;5100529;27;45511;-76
2023/12/08 06:23:32;;;;;;;;;0.00;0.00;;;;;-146.25;100.00;57879.81;5082008;27;45406;-75
2023/12/08 06:25:57;;;;;;;;;2.75;2.50;;;;;-146.25;100.00;57879.81;5100583;27;45169;-76
2023/12/08 06:28:23;;;;;;;;;1.50;1.00;;;;;-146.25;100.00;57879.81;5100202;27;46618;-76
2023/12/08 06:30:50;;;;;;;;;2.00;1.00;;;;;-146.25;100.00;57879.81;5100092;27;45444;-77
2023/12/08 06:33:15;;;;;;;;;1.00;1.00;;;;;-146.25;100.00;57879.81;5100119;27;45547;-76
2023/12/08 06:35:41;;;;;;;;;0.00;0.00;;;;;-146.25;100.00;57879.81;5100550;27;45520;-78
2023/12/08 06:38:07;;;;;;;;;3.00;2.50;;;;;-146.25;100.00;57879.81;5099732;27;45902;-76
2023/12/08 06:40:32;;;;;;;;;2.00;2.00;;;;;-146.25;100.00;57879.81;5099923;27;45873;-77
2023/12/08 06:42:58;;;;;;;;;1.25;1.25;;;;;-146.25;100.00;57879.81;5100062;27;45360;-77
2023/12/08 06:45:23;;;;;;;;;3.00;2.00;;;;;-146.25;100.00;57879.81;5100385;27;45246;-76
2023/12/08 06:47:49;;;;;;;;;2.00;2.00;;;;;-146.25;100.00;57879.81;5099776;27;46171;-76
2023/12/08 06:50:15;;;;;;;;;1.00;1.00;;;;;-146.25;100.00;57879.81;5099853;27;45270;-76
2023/12/08 06:52:40;;;;;;;;;2.00;1.00;;;;;-146.25;100.00;57879.81;5081329;27;45363;-76
2023/12/08 06:55:06;;;;;;;;;3.00;2.00;;;;;-146.25;100.00;57879.81;5102330;27;45431;-75
2023/12/08 06:57:36;;;;;;;;;5.25;4.75;;;;;-146.25;100.00;57879.81;5089484;27;45707;-77
2023/12/08 07:00:10;;;;;;;;;1.00;1.00;;;;;-146.25;100.00;57879.81;5109443;27;45636;-75
2023/12/08 07:02:37;;;;;;;;;2.00;1.50;;;;;-146.25;100.00;57879.81;5108601;27;45557;-77
2023/12/08 07:05:05;;;;;;;;;3.00;2.25;;;;;-146.25;100.00;57879.81;5108180;27;45380;-77
2023/12/08 07:07:31;;;;;;;;;0.67;0.67;;;;;-146.25;100.00;57879.81;5108968;27;46437;-78
2023/12/08 07:09:56;;;;;;;;;1.25;1.25;;;;;-146.25;100.00;57879.81;5091326;27;45266;-76
2023/12/08 07:12:22;;;;;;;;;4.50;4.25;;;;;-146.25;100.00;57879.81;5108036;27;45322;-77
2023/12/08 07:14:50;;;;;;;;;6.00;6.00;;;;;-146.25;100.00;57879.81;5108831;27;45512;-77
2023/12/08 07:17:16;;;;;;;;;3.00;3.00;;;;;-146.25;100.00;57879.81;5109275;27;45694;-77
2023/12/08 07:19:42;;;;;;;;;2.00;2.00;;;;;-146.25;100.00;57879.81;5107759;27;45286;-77
2023/12/08 07:22:08;;;;;;;;;0.67;0.00;;;;;-146.25;100.00;57879.81;5108911;27;45426;-78
2023/12/08 07:24:33;;;;;;;;;1.67;1.00;;;;;-146.25;100.00;57879.81;5109491;27;45609;-75
2023/12/08 07:26:59;;;;;;;;;1.50;1.00;;;;;-146.25;100.00;57879.81;5107460;27;46046;-77
2023/12/08 07:29:24;;;;;;;;;2.50;2.00;;;;;-146.25;100.00;57879.81;5109500;27;45450;-76
2023/12/08 07:31:50;;;;;;;;;12.25;11.25;;;;;-146.25;100.00;57879.81;5108676;27;45688;-78
2023/12/08 07:34:15;;;;;;;;;3.00;2.50;;;;;-146.25;100.00;57879.81;5110403;27;45460;-75
2023/12/08 07:36:41;;;;;;;;;4.00;4.00;;;;;-146.25;100.00;57879.81;5119783;27;46049;-77
2023/12/08 07:39:09;;;;;;;;;17.00;17.00;;;;;-146.25;100.00;57879.81;5119772;27;45416;-79
2023/12/08 07:41:34;;;;;;;;;4.00;4.00;;;;;-146.25;100.00;57879.81;5119932;27;45353;-75
2023/12/08 07:44:00;;;;;;;;;4.00;4.00;;;;;-146.25;100.00;57879.81;5120022;27;45478;-75
2023/12/08 07:46:25;;;;;;;;;2.50;2.50;;;;;-146.25;100.00;57879.81;5108310;27;45710;-79
2023/12/08 07:48:51;;;;;;;;;2.25;2.00;;;;;-146.25;100.00;57879.81;5089142;27;45376;-79
2023/12/08 07:51:17;;;;;;;;;3.00;3.00;;;;;-146.25;100.00;57879.81;5107819;27;45433;-77
2023/12/08 07:53:43;;;;;;;;;5.00;4.00;;;;;-146.25;100.00;57879.81;5109979;27;45515;-77
2023/12/08 07:56:11;;;;;;;;;3.00;3.00;;;;;-146.25;100.00;57879.81;5106490;27;45386;-77
2023/12/08 07:58:37;;;;;;;;;2.00;2.00;;;;;-146.25;100.00;57879.81;5107620;27;45544;-77
2023/12/08 08:01:03;;;;;;;;;2.25;2.00;;;;;-146.25;100.00;57879.81;5108014;27;45659;-77
2023/12/08 08:03:29;;;;;;;;;1.75;1.00;;;;;-146.25;100.00;57879.81;5109231;27;45372;-76
2023/12/08 08:05:55;;;;;;;;;1.00;1.00;;;;;-146.25;100.00;57879.81;5106914;27;46037;-78
2023/12/08 08:08:21;;;;;;;;;3.25;2.25;;;;;-146.25;100.00;57879.81;5108069;27;45409;-76
2023/12/08 08:10:48;;;;;;;;;2.00;1.00;;;;;-146.25;100.00;57879.81;5109028;27;45534;-75
2023/12/08 08:13:14;;;;;;;;;2.00;2.00;;;;;-146.25;100.00;57879.81;5108316;27;45436;-75
2023/12/08 08:15:39;;;;;;;;;2.00;1.00;;;;;-146.25;100.00;57879.81;5107159;27;46515;-75
2023/12/08 08:18:05;;;;;;;;;0.00;0.00;;;;;-146.25;100.00;57879.81;5108843;27;45248;-76
2023/12/08 08:20:31;;;;;;;;;1.00;1.00;;;;;-146.25;100.00;57879.81;5107337;27;45462;-76
2023/12/08 08:22:56;;;;;;;;;1.00;1.00;;;;;-146.25;100.00;57879.81;5108068;27;45542;-76
2023/12/08 08:25:22;;;;;;;;;4.25;4.00;;;;;-146.25;100.00;57879.81;5099468;27;46127;-76
2023/12/08 08:27:49;;;;;;;;;2.25;2.25;;;;;-146.25;100.00;57879.81;5098490;27;45299;-76
2023/12/08 08:30:15;;;;;;;;;2.50;1.00;;;;;-146.25;100.00;57879.81;5098652;27;45503;-76
2023/12/08 08:32:41;;;;;;;;;0.00;0.00;;;;;-146.25;100.00;57879.81;5098395;27;45450;-76
2023/12/08 08:35:07;;;;;;;;;1.00;0.00;;;;;-146.25;100.00;57879.81;5108338;27;45461;-76
2023/12/08 08:37:32;;;;;;;;;0.00;0.00;;;;;-146.25;100.00;57879.81;5106529;27;45559;-76
2023/12/08 08:39:58;;;;;;;;;0.75;0.00;;;;;-146.25;100.00;57879.81;5107751;27;45380;-75
2023/12/08 08:42:23;;;;;;;;;2.75;2.50;;;;;-146.25;100.00;57879.81;5108636;27;45367;-76
2023/12/08 08:44:49;;;;;;;;;0.00;0.00;;;;;-146.25;100.00;57879.81;5112323;27;46102;-76
2023/12/08 08:47:15;;;;;;;;;0.00;0.00;;;;;-146.25;100.00;57879.81;5118899;27;45788;-76
2023/12/08 08:49:41;;;;;;;;;0.67;0.00;;;;;-146.25;100.00;57879.81;5112426;27;45512;-77
2023/12/08 08:52:06;;;;;;;;;2.00;0.33;;;;;-146.25;100.00;57879.81;5105798;27;45357;-76
2023/12/08 08:54:32;;;;;;;;;0.00;0.00;;;;;-146.25;100.00;57879.81;5089297;27;46624;-79
2023/12/08 08:56:57;;;;;;;;;0.00;0.00;;;;;-146.25;100.00;57879.81;5106534;27;46617;-78
2023/12/08 08:59:23;;;;;;;;;0.67;0.00;;;;;-146.25;100.00;57879.81;5106241;27;45516;-77
2023/12/08 09:01:48;;;;;;;;;0.00;0.00;;;;;-146.25;100.00;57879.81;5106023;27;45638;-77
2023/12/08 09:04:15;;;;;;;;;0.67;0.00;;;;;-146.25;100.00;57879.81;5106882;27;45977;-76
2023/12/08 09:06:40;;;;;;;;;1.00;0.00;;;;;-146.25;100.00;57879.81;5107501;27;45636;-78
2023/12/08 09:09:07;;;;;;;;;0.00;0.00;;;;;-146.25;100.00;57879.81;5105904;27;45590;-77
2023/12/08 09:11:32;;;;;;;;;3.75;3.75;;;;;-146.25;100.00;57879.81;5105536;27;45540;-75
2023/12/08 09:13:58;;;;;;;;;0.00;0.00;;;;;-146.25;100.00;57879.81;5107132;27;45494;-75
2023/12/08 09:16:24;;;;;;;;;3.00;2.67;;;;;-146.25;100.00;57879.81;5107146;27;45456;-77
2023/12/08 09:18:50;;;;;;;;;3.00;3.00;;;;;-146.25;100.00;57879.81;5106807;27;45522;-75
2023/12/08 09:21:16;;;;;;;;;2.00;1.00;;;;;-146.25;100.00;57879.81;5105218;27;45374;-77
2023/12/08 09:23:42;;;;;;;;;13.50;11.75;;;;;-146.25;100.00;57879.81;5106385;27;46123;-78
2023/12/08 09:26:07;;;;;;;;;5.00;4.00;;;;;-146.25;100.00;57879.81;5105578;27;45336;-74
2023/12/08 09:28:33;;;;;;;;;2.67;2.67;;;;;-146.25;100.00;57879.81;5107913;27;45410;-79
2023/12/08 09:31:00;;;;;;;;;3.00;3.00;;;;;-146.25;100.00;57879.81;5112021;27;45373;-76
2023/12/08 09:33:26;;;;;;;;;4.33;3.33;;;;;-146.25;100.00;57879.81;5117682;27;46466;-78
2023/12/08 09:35:52;;;;;;;;;6.25;5.75;;;;;-146.25;100.00;57879.81;5117434;27;47248;-77
2023/12/08 09:38:18;;;;;;;;;1.00;1.00;;;;;-146.25;100.00;57879.81;5119716;27;45425;-77
2023/12/08 09:40:44;;;;;;;;;3.00;2.00;;;;;-146.25;100.00;57879.81;5121176;27;45417;-77
2023/12/08 09:43:18;;;;;;;;;2.67;1.00;;;;;-146.25;100.00;57879.81;5121083;27;46238;-78
2023/12/08 09:45:45;;;;;;;;;2.50;2.25;;;;;-146.25;100.00;57879.81;5121177;27;45219;-77
2023/12/08 09:48:12;;;;;;;;;2.33;2.00;;;;;-146.25;100.00;57879.81;5121243;27;45357;-77
2023/12/08 09:50:39;;;;;;;;;4.25;4.25;;;;;-146.25;100.00;57879.81;5121113;27;45571;-77
2023/12/08 09:53:05;;;;;;;;;2.33;2.00;;;;;-146.25;100.00;57879.81;5120489;27;46050;-77
2023/12/08 09:55:33;;;;;;;;;5.75;5.00;;;;;-146.25;100.00;57879.81;5120820;27;45324;-77
2023/12/08 09:58:01;;;;;;;;;4.33;3.33;;;;;-146.25;100.00;57879.81;5121130;27;45353;-77
2023/12/08 10:00:30;;;;;;;;;11.50;10.25;;;;;-146.25;100.00;57879.81;5121400;27;45235;-77
2023/12/08 10:02:56;;;;;;;;;9.00;7.50;;;;;-146.25;100.00;57879.81;5120765;27;45301;-77
2023/12/08 10:05:22;;;;;;;;;5.25;5.00;;;;;-146.25;100.00;57879.81;5121150;27;45343;-78
2023/12/08 10:07:50;;;;;;;;;4.00;4.00;;;;;-146.25;100.00;57879.81;5120693;27;45430;-78
2023/12/08 10:10:16;;;;;;;;;4.67;4.00;;;;;-146.25;100.00;57879.81;5120787;27;45445;-77
2023/12/08 10:12:42;;;;;;;;;6.50;5.50;;;;;-146.25;100.00;57879.81;5120437;27;45534;-77
2023/12/08 10:15:13;;;;;;;;;1.00;1.00;;;;;-146.25;100.00;57879.81;5120663;27;45589;-78
2023/12/08 10:17:48;;;;;;;;;6.50;5.25;;;;;-146.25;100.00;57879.81;5120659;27;45518;-78
2023/12/08 10:20:15;;;;;;;;;21.75;20.50;;;;;-146.25;100.00;57879.81;5120715;27;45431;-77
2023/12/08 10:22:54;;;;;;;;;13.75;12.75;;;;;-146.25;100.00;57879.81;5120345;27;45325;-78
2023/12/08 10:25:21;;;;;;;;;10.00;9.00;;;;;-146.25;100.00;57879.81;5120767;27;45267;-77
2023/12/08 10:27:49;;;;;;;;;4.00;4.00;;;;;-146.25;100.00;57879.81;5120523;27;45546;-77
2023/12/08 10:30:16;;;;;;;;;4.00;4.00;;;;;-146.25;100.00;57879.81;5120504;27;45455;-77
2023/12/08 10:32:43;;;;;;;;;10.67;7.67;;;;;-146.25;100.00;57879.81;5120190;27;46380;-77
2023/12/08 10:35:11;;;;;;;;;5.33;5.00;;;;;-146.25;100.00;57879.81;5120120;27;45368;-77
2023/12/08 10:37:38;;;;;;;;;4.00;1.33;;;;;-146.25;100.00;57879.81;5119475;27;45396;-76
2023/12/08 10:40:05;;;;;;;;;7.33;6.67;;;;;-146.25;100.00;57879.81;5101909;27;45379;-78
2023/12/08 10:42:31;;;;;;;;;3.00;2.00;;;;;-146.25;100.00;57879.81;5120110;27;46129;-76
2023/12/08 10:44:59;;;;;;;;;8.00;6.00;;;;;-146.25;100.00;57879.81;5119944;27;45567;-76
2023/12/08 10:47:25;;;;;;;;;7.00;6.50;;;;;-146.25;100.00;57879.81;5120560;27;45456;-77
2023/12/08 10:49:54;;;;;;;;;5.25;5.25;;;;;-146.25;100.00;57879.81;5100471;27;45449;-77
2023/12/08 10:52:22;;;;;;;;;3.67;3.33;;;;;-146.25;100.00;57879.81;5119680;27;46181;-76
2023/12/08 10:54:49;;;;;;;;;3.00;2.00;;;;;-146.25;100.00;57879.81;5119658;27;45348;-77
2023/12/08 10:57:15;;;;;;;;;5.67;4.67;;;;;-146.25;100.00;57879.81;5119564;27;45456;-78
2023/12/08 10:59:44;;;;;;;;;1.33;1.00;;;;;-146.25;100.00;57879.81;5120085;27;45252;-77
2023/12/08 11:02:20;;;;;;;;;8.00;6.67;;;;;-146.25;100.00;57879.81;5119420;27;46200;-76
2023/12/08 11:04:53;;;;;;;;;6.67;5.00;;;;;-146.25;100.00;57879.81;5119233;27;45429;-76